Hauptseite
METAR-TAF:

METAR-TAF

Flughäfen :

Frankfurt am Main, Deutschland

Flughafen Frankfurt am Main

Breite: 50-03N, Länge: 008-36E, Höhe: 111 m

Beobachtung

Neuester Wetterbericht von vor 34 Minuten, um 17:20 UTC
Wind 9 kt aus West
Temperatur 12°C
Luftfeuchtigkeit 44%
Luftdruck 1014 hPa
Sichtweite 10 km oder mehr
keine Wolken unter 1500 m und keine Kumulonimbus oder Gewitterwolken

METAR: EDDF 281720Z 26009KT CAVOK 12/00 Q1014 NOSIG

Zeit: 19:54 (17:54 UTC)

Prognose

Neuester Wetterbericht von vor 25 Minuten, um 17:29 UTC
Gültige Prognose vom 28 um 18 UTC bis 29 um 24 UTC
Wind 7 kt aus West
Sichtweite 10 km oder mehr
Leicht bewölkt in der Höhe von 4500 ft
Zeitweise
vom 28 um 21 UTC bis 29 um 10 UTC
Wind 4 kt aus Süd/Südwest
Übergehend zu
vom 29 um 15 UTC bis 29 um 18 UTC
Wind 5 kt aus Nord/Nordost

TAF: EDDF 281729Z 2818/2924 27007KT 9999 FEW045 TEMPO 2821/2910 21004KT BECMG 2915/2918 03005KT

Wetterbeobachtungen und Prognosen von mehr als 4000 Flughäfen (METAR und TAF Bericht).

Die verfügbaren Stationen werden durch gelbe und rote Markierungen auf der Karte dargestellt.

Führen Sie die Maus auf sie, um den Namen der Station zu sehen.

Darauf klicken, um die Beobachtung von Wetterbeobachtungen und Prognosen zu sehen.

Um die Karte zu ändern : klicken Sie auf den grünen Tasten mit einem schwarzen Kreuz Zum Vergrößern, auf den grünen Button mit einem Gedankenstrich zu verkleinern, oder auf die grünen Pfeile für benachbarte Karten.


METAR-TAF: